< < Back
Terminal Aerodrome Forecast


Current Version              Previous Versions:   1  2  3  4  5  6  7  8  9  

Terminal Aerodrome Forecast

117
FTUS42 KCAE 272107 AAA
TAFAGS
TAF AMD
KAGS 272107Z 2721/2818 14007KT P6SM SCT060
     FM280300 VRB03KT P6SM SCT060
     FM281000 VRB03KT 4SM BR SCT060 BKN120
     FM281300 05006KT P6SM SCT040 BKN120=

Latest METAR

740
SAUS70 KWBC 280000 RRI
MTRAGS
METAR KAGS 272353Z 15007KT 10SM CLR 27/16 A3003 RMK AO2 SLP167 T02670156
10306 20267 55002


USA.gov is the U.S. government's official web portal to all federal, state and local government web resources and services.